sensor_id;sensor_type;location;lat;lon;timestamp;temperature;humidity
680;DHT22;322;48.846;9.230;2022-10-16T00:00:39;16.20;99.90
680;DHT22;322;48.846;9.230;2022-10-16T00:03:07;16.30;99.90
680;DHT22;322;48.846;9.230;2022-10-16T00:05:38;16.30;99.90
680;DHT22;322;48.846;9.230;2022-10-16T00:08:05;16.30;99.90
680;DHT22;322;48.846;9.230;2022-10-16T00:10:33;16.20;99.90
680;DHT22;322;48.846;9.230;2022-10-16T00:13:00;16.30;99.90
680;DHT22;322;48.846;9.230;2022-10-16T00:15:27;16.20;99.90
680;DHT22;322;48.846;9.230;2022-10-16T00:17:54;16.20;99.90
680;DHT22;322;48.846;9.230;2022-10-16T00:20:21;16.20;99.90
680;DHT22;322;48.846;9.230;2022-10-16T00:22:47;16.10;99.90
680;DHT22;322;48.846;9.230;2022-10-16T00:25:14;16.10;99.90
680;DHT22;322;48.846;9.230;2022-10-16T00:27:42;16.00;99.90
680;DHT22;322;48.846;9.230;2022-10-16T00:30:09;16.00;99.90
680;DHT22;322;48.846;9.230;2022-10-16T00:32:36;16.00;99.90
680;DHT22;322;48.846;9.230;2022-10-16T00:35:04;15.90;99.90
680;DHT22;322;48.846;9.230;2022-10-16T00:37:31;15.90;99.90
680;DHT22;322;48.846;9.230;2022-10-16T00:39:57;15.90;99.90
680;DHT22;322;48.846;9.230;2022-10-16T00:42:24;15.80;99.90
680;DHT22;322;48.846;9.230;2022-10-16T00:44:54;15.70;99.90
680;DHT22;322;48.846;9.230;2022-10-16T00:47:26;15.70;99.90
680;DHT22;322;48.846;9.230;2022-10-16T00:49:58;15.70;99.90
680;DHT22;322;48.846;9.230;2022-10-16T00:52:26;15.60;99.90
680;DHT22;322;48.846;9.230;2022-10-16T00:54:54;15.60;99.90
680;DHT22;322;48.846;9.230;2022-10-16T00:57:21;15.60;99.90
680;DHT22;322;48.846;9.230;2022-10-16T00:59:48;15.60;99.90
680;DHT22;322;48.846;9.230;2022-10-16T01:02:17;15.50;99.90
680;DHT22;322;48.846;9.230;2022-10-16T01:04:46;15.50;99.90
680;DHT22;322;48.846;9.230;2022-10-16T01:07:18;15.50;99.90
680;DHT22;322;48.846;9.230;2022-10-16T01:09:57;15.50;99.90
680;DHT22;322;48.846;9.230;2022-10-16T01:12:35;15.60;99.90
680;DHT22;322;48.846;9.230;2022-10-16T01:15:10;15.70;99.90
680;DHT22;322;48.846;9.230;2022-10-16T01:17:43;15.70;99.90
680;DHT22;322;48.846;9.230;2022-10-16T01:20:18;15.80;99.90
680;DHT22;322;48.846;9.230;2022-10-16T01:23:02;15.80;99.90
680;DHT22;322;48.846;9.230;2022-10-16T01:25:40;15.90;99.90
680;DHT22;322;48.846;9.230;2022-10-16T01:28:13;15.90;99.90
680;DHT22;322;48.846;9.230;2022-10-16T01:30:42;16.00;99.90
680;DHT22;322;48.846;9.230;2022-10-16T01:33:14;16.00;99.90
680;DHT22;322;48.846;9.230;2022-10-16T01:35:44;15.90;99.90
680;DHT22;322;48.846;9.230;2022-10-16T01:38:17;15.80;99.90
680;DHT22;322;48.846;9.230;2022-10-16T01:40:49;15.80;99.90
680;DHT22;322;48.846;9.230;2022-10-16T01:43:20;15.90;99.90
680;DHT22;322;48.846;9.230;2022-10-16T01:45:49;15.90;99.90
680;DHT22;322;48.846;9.230;2022-10-16T01:48:18;15.90;99.90
680;DHT22;322;48.846;9.230;2022-10-16T01:50:52;15.80;99.90
680;DHT22;322;48.846;9.230;2022-10-16T01:53:20;15.80;99.90
680;DHT22;322;48.846;9.230;2022-10-16T01:55:49;15.90;99.90
680;DHT22;322;48.846;9.230;2022-10-16T01:58:18;15.90;99.90
680;DHT22;322;48.846;9.230;2022-10-16T02:00:46;15.90;99.90
680;DHT22;322;48.846;9.230;2022-10-16T02:03:16;15.90;99.90
680;DHT22;322;48.846;9.230;2022-10-16T02:05:47;15.90;99.90
680;DHT22;322;48.846;9.230;2022-10-16T02:08:15;15.90;99.90
680;DHT22;322;48.846;9.230;2022-10-16T02:10:42;15.90;99.90
680;DHT22;322;48.846;9.230;2022-10-16T02:13:11;15.90;99.90
680;DHT22;322;48.846;9.230;2022-10-16T02:15:40;15.90;99.90
680;DHT22;322;48.846;9.230;2022-10-16T02:18:07;15.90;99.90
680;DHT22;322;48.846;9.230;2022-10-16T02:20:40;15.90;99.90
680;DHT22;322;48.846;9.230;2022-10-16T02:23:12;15.90;99.90
680;DHT22;322;48.846;9.230;2022-10-16T02:25:42;15.90;99.90
680;DHT22;322;48.846;9.230;2022-10-16T02:28:16;16.00;99.90
680;DHT22;322;48.846;9.230;2022-10-16T02:30:48;15.90;99.90
680;DHT22;322;48.846;9.230;2022-10-16T02:33:17;15.90;99.90
680;DHT22;322;48.846;9.230;2022-10-16T02:35:47;15.90;99.90
680;DHT22;322;48.846;9.230;2022-10-16T02:38:16;15.90;99.90
680;DHT22;322;48.846;9.230;2022-10-16T02:40:44;15.90;99.90
680;DHT22;322;48.846;9.230;2022-10-16T02:43:11;15.90;99.90
680;DHT22;322;48.846;9.230;2022-10-16T02:45:38;15.80;99.90
680;DHT22;322;48.846;9.230;2022-10-16T02:48:07;15.80;99.90
680;DHT22;322;48.846;9.230;2022-10-16T02:50:33;15.70;99.90
680;DHT22;322;48.846;9.230;2022-10-16T02:53:00;15.70;99.90
680;DHT22;322;48.846;9.230;2022-10-16T02:55:27;15.60;99.90
680;DHT22;322;48.846;9.230;2022-10-16T02:57:54;15.60;99.90
680;DHT22;322;48.846;9.230;2022-10-16T03:00:21;15.50;99.90
680;DHT22;322;48.846;9.230;2022-10-16T03:02:48;15.50;99.90
680;DHT22;322;48.846;9.230;2022-10-16T03:05:16;15.60;99.90
680;DHT22;322;48.846;9.230;2022-10-16T03:07:43;15.60;99.90
680;DHT22;322;48.846;9.230;2022-10-16T03:10:10;15.50;99.90
680;DHT22;322;48.846;9.230;2022-10-16T03:12:37;15.50;99.90
680;DHT22;322;48.846;9.230;2022-10-16T03:15:04;15.40;99.90
680;DHT22;322;48.846;9.230;2022-10-16T03:17:32;15.40;99.90
680;DHT22;322;48.846;9.230;2022-10-16T03:19:59;15.40;99.90
680;DHT22;322;48.846;9.230;2022-10-16T03:22:27;15.40;99.90
680;DHT22;322;48.846;9.230;2022-10-16T03:24:54;15.30;99.90
680;DHT22;322;48.846;9.230;2022-10-16T03:27:21;15.30;99.90
680;DHT22;322;48.846;9.230;2022-10-16T03:29:47;15.30;99.90
680;DHT22;322;48.846;9.230;2022-10-16T03:32:14;15.20;99.90
680;DHT22;322;48.846;9.230;2022-10-16T03:34:41;15.20;99.90
680;DHT22;322;48.846;9.230;2022-10-16T03:37:08;15.10;99.90
680;DHT22;322;48.846;9.230;2022-10-16T03:39:36;15.10;99.90
680;DHT22;322;48.846;9.230;2022-10-16T03:42:02;15.20;99.90
680;DHT22;322;48.846;9.230;2022-10-16T03:44:30;15.20;99.90
680;DHT22;322;48.846;9.230;2022-10-16T03:46:56;15.10;99.90
680;DHT22;322;48.846;9.230;2022-10-16T03:49:23;15.20;99.90
680;DHT22;322;48.846;9.230;2022-10-16T03:51:50;15.20;99.90
680;DHT22;322;48.846;9.230;2022-10-16T03:54:17;15.20;99.90
680;DHT22;322;48.846;9.230;2022-10-16T03:56:45;15.20;99.90
680;DHT22;322;48.846;9.230;2022-10-16T03:59:11;15.10;99.90
680;DHT22;322;48.846;9.230;2022-10-16T04:01:38;15.10;99.90
680;DHT22;322;48.846;9.230;2022-10-16T04:04:05;15.00;99.90
680;DHT22;322;48.846;9.230;2022-10-16T04:06:32;15.00;99.90
680;DHT22;322;48.846;9.230;2022-10-16T04:08:59;15.00;99.90
680;DHT22;322;48.846;9.230;2022-10-16T04:11:25;15.00;99.90
680;DHT22;322;48.846;9.230;2022-10-16T04:13:54;15.00;99.90
680;DHT22;322;48.846;9.230;2022-10-16T04:16:20;15.10;99.90
680;DHT22;322;48.846;9.230;2022-10-16T04:18:47;15.10;99.90
680;DHT22;322;48.846;9.230;2022-10-16T04:21:14;15.00;99.90
680;DHT22;322;48.846;9.230;2022-10-16T04:23:41;15.00;99.90
680;DHT22;322;48.846;9.230;2022-10-16T04:26:08;14.90;99.90
680;DHT22;322;48.846;9.230;2022-10-16T04:28:35;14.90;99.90
680;DHT22;322;48.846;9.230;2022-10-16T04:31:05;14.90;99.90
680;DHT22;322;48.846;9.230;2022-10-16T04:33:32;14.80;99.90
680;DHT22;322;48.846;9.230;2022-10-16T04:36:00;14.80;99.90
680;DHT22;322;48.846;9.230;2022-10-16T04:38:28;14.80;99.90
680;DHT22;322;48.846;9.230;2022-10-16T04:40:55;14.80;99.90
680;DHT22;322;48.846;9.230;2022-10-16T04:43:22;14.90;99.90
680;DHT22;322;48.846;9.230;2022-10-16T04:45:48;14.90;99.90
680;DHT22;322;48.846;9.230;2022-10-16T04:48:18;14.90;99.90
680;DHT22;322;48.846;9.230;2022-10-16T04:50:45;15.00;99.90
680;DHT22;322;48.846;9.230;2022-10-16T04:53:12;15.00;99.90
680;DHT22;322;48.846;9.230;2022-10-16T04:55:39;15.00;99.90
680;DHT22;322;48.846;9.230;2022-10-16T04:58:07;15.00;99.90
680;DHT22;322;48.846;9.230;2022-10-16T05:00:34;15.00;99.90
680;DHT22;322;48.846;9.230;2022-10-16T05:03:01;15.00;99.90
680;DHT22;322;48.846;9.230;2022-10-16T05:05:33;15.00;99.90
680;DHT22;322;48.846;9.230;2022-10-16T05:08:00;15.00;99.90
680;DHT22;322;48.846;9.230;2022-10-16T05:10:26;15.10;99.90
680;DHT22;322;48.846;9.230;2022-10-16T05:12:53;15.10;99.90
680;DHT22;322;48.846;9.230;2022-10-16T05:15:20;15.10;99.90
680;DHT22;322;48.846;9.230;2022-10-16T05:17:52;15.10;99.90
680;DHT22;322;48.846;9.230;2022-10-16T05:20:19;15.10;99.90
680;DHT22;322;48.846;9.230;2022-10-16T05:22:47;15.10;99.90
680;DHT22;322;48.846;9.230;2022-10-16T05:25:14;15.10;99.90
680;DHT22;322;48.846;9.230;2022-10-16T05:27:41;15.10;99.90
680;DHT22;322;48.846;9.230;2022-10-16T05:30:08;15.00;99.90
680;DHT22;322;48.846;9.230;2022-10-16T05:32:35;15.00;99.90
680;DHT22;322;48.846;9.230;2022-10-16T05:35:02;15.00;99.90
680;DHT22;322;48.846;9.230;2022-10-16T05:37:28;14.90;99.90
680;DHT22;322;48.846;9.230;2022-10-16T05:39:56;14.90;99.90
680;DHT22;322;48.846;9.230;2022-10-16T05:42:23;14.90;99.90
680;DHT22;322;48.846;9.230;2022-10-16T05:44:50;14.90;99.90
680;DHT22;322;48.846;9.230;2022-10-16T05:47:17;14.90;99.90
680;DHT22;322;48.846;9.230;2022-10-16T05:49:46;14.90;99.90
680;DHT22;322;48.846;9.230;2022-10-16T05:52:13;14.90;99.90
680;DHT22;322;48.846;9.230;2022-10-16T05:54:39;14.70;99.90
680;DHT22;322;48.846;9.230;2022-10-16T05:57:08;14.70;99.90
680;DHT22;322;48.846;9.230;2022-10-16T05:59:34;14.70;99.90
680;DHT22;322;48.846;9.230;2022-10-16T06:02:02;14.70;99.90
680;DHT22;322;48.846;9.230;2022-10-16T06:04:28;14.70;99.90
680;DHT22;322;48.846;9.230;2022-10-16T06:06:58;14.70;99.90
680;DHT22;322;48.846;9.230;2022-10-16T06:09:25;14.70;99.90
680;DHT22;322;48.846;9.230;2022-10-16T06:11:52;14.70;99.90
680;DHT22;322;48.846;9.230;2022-10-16T06:14:21;14.80;99.90
680;DHT22;322;48.846;9.230;2022-10-16T06:16:47;14.80;99.90
680;DHT22;322;48.846;9.230;2022-10-16T06:19:14;14.80;99.90
680;DHT22;322;48.846;9.230;2022-10-16T06:21:41;14.80;99.90
680;DHT22;322;48.846;9.230;2022-10-16T06:24:09;14.90;99.90
680;DHT22;322;48.846;9.230;2022-10-16T06:26:36;14.90;99.90
680;DHT22;322;48.846;9.230;2022-10-16T06:29:03;14.90;99.90
680;DHT22;322;48.846;9.230;2022-10-16T06:31:32;15.00;99.90
680;DHT22;322;48.846;9.230;2022-10-16T06:33:59;15.00;99.90
680;DHT22;322;48.846;9.230;2022-10-16T06:36:26;15.00;99.90
680;DHT22;322;48.846;9.230;2022-10-16T06:38:53;15.10;99.90
680;DHT22;322;48.846;9.230;2022-10-16T06:41:21;15.20;99.90
680;DHT22;322;48.846;9.230;2022-10-16T06:43:49;15.30;99.90
680;DHT22;322;48.846;9.230;2022-10-16T06:46:19;15.30;99.90
680;DHT22;322;48.846;9.230;2022-10-16T06:48:47;15.40;99.90
680;DHT22;322;48.846;9.230;2022-10-16T06:51:15;15.50;99.90
680;DHT22;322;48.846;9.230;2022-10-16T06:53:45;15.50;99.90
680;DHT22;322;48.846;9.230;2022-10-16T06:56:15;15.70;99.90
680;DHT22;322;48.846;9.230;2022-10-16T06:58:43;15.80;99.90
680;DHT22;322;48.846;9.230;2022-10-16T07:01:11;15.80;99.90
680;DHT22;322;48.846;9.230;2022-10-16T07:03:38;15.90;99.90
680;DHT22;322;48.846;9.230;2022-10-16T07:06:08;16.00;99.90
680;DHT22;322;48.846;9.230;2022-10-16T07:08:37;16.10;99.90
680;DHT22;322;48.846;9.230;2022-10-16T07:11:06;16.20;99.90
680;DHT22;322;48.846;9.230;2022-10-16T07:13:34;16.30;99.90
680;DHT22;322;48.846;9.230;2022-10-16T07:16:04;16.50;99.90
680;DHT22;322;48.846;9.230;2022-10-16T07:18:31;16.60;99.90
680;DHT22;322;48.846;9.230;2022-10-16T07:21:03;16.80;99.90
680;DHT22;322;48.846;9.230;2022-10-16T07:23:32;16.90;99.90
680;DHT22;322;48.846;9.230;2022-10-16T07:25:58;17.00;99.90
680;DHT22;322;48.846;9.230;2022-10-16T07:28:25;17.00;99.90
680;DHT22;322;48.846;9.230;2022-10-16T07:30:52;16.90;99.90
680;DHT22;322;48.846;9.230;2022-10-16T07:33:19;16.90;99.90
680;DHT22;322;48.846;9.230;2022-10-16T07:35:50;16.90;99.90
680;DHT22;322;48.846;9.230;2022-10-16T07:38:17;16.90;99.90
680;DHT22;322;48.846;9.230;2022-10-16T07:40:45;16.80;99.90
680;DHT22;322;48.846;9.230;2022-10-16T07:43:12;16.80;99.90
680;DHT22;322;48.846;9.230;2022-10-16T07:45:46;16.70;99.90
680;DHT22;322;48.846;9.230;2022-10-16T07:48:14;16.70;99.90
680;DHT22;322;48.846;9.230;2022-10-16T07:50:41;16.70;99.90
680;DHT22;322;48.846;9.230;2022-10-16T07:53:08;16.70;99.90
680;DHT22;322;48.846;9.230;2022-10-16T07:55:35;16.80;99.90
680;DHT22;322;48.846;9.230;2022-10-16T07:58:04;16.90;99.90
680;DHT22;322;48.846;9.230;2022-10-16T08:00:31;16.90;99.90
680;DHT22;322;48.846;9.230;2022-10-16T08:02:59;17.10;99.90
680;DHT22;322;48.846;9.230;2022-10-16T08:05:26;17.30;99.90
680;DHT22;322;48.846;9.230;2022-10-16T08:07:53;17.50;99.90
680;DHT22;322;48.846;9.230;2022-10-16T08:10:21;17.70;99.90
680;DHT22;322;48.846;9.230;2022-10-16T08:12:48;17.90;99.90
680;DHT22;322;48.846;9.230;2022-10-16T08:15:16;18.00;99.90
680;DHT22;322;48.846;9.230;2022-10-16T08:17:43;18.20;99.90
680;DHT22;322;48.846;9.230;2022-10-16T08:20:11;18.40;99.90
680;DHT22;322;48.846;9.230;2022-10-16T08:22:37;18.20;99.90
680;DHT22;322;48.846;9.230;2022-10-16T08:25:05;18.40;99.90
680;DHT22;322;48.846;9.230;2022-10-16T08:27:32;18.40;99.90
680;DHT22;322;48.846;9.230;2022-10-16T08:29:59;18.50;99.90
680;DHT22;322;48.846;9.230;2022-10-16T08:32:27;18.70;99.90
680;DHT22;322;48.846;9.230;2022-10-16T08:34:54;19.00;99.90
680;DHT22;322;48.846;9.230;2022-10-16T08:37:20;19.40;99.90
680;DHT22;322;48.846;9.230;2022-10-16T08:39:47;19.90;99.90
680;DHT22;322;48.846;9.230;2022-10-16T08:42:23;20.30;99.90
680;DHT22;322;48.846;9.230;2022-10-16T08:45:13;20.60;99.90
680;DHT22;322;48.846;9.230;2022-10-16T08:47:49;20.60;99.90
680;DHT22;322;48.846;9.230;2022-10-16T08:50:22;20.90;99.90
680;DHT22;322;48.846;9.230;2022-10-16T08:52:50;21.00;99.90
680;DHT22;322;48.846;9.230;2022-10-16T08:55:30;21.20;99.90
680;DHT22;322;48.846;9.230;2022-10-16T08:58:00;21.20;99.90
680;DHT22;322;48.846;9.230;2022-10-16T09:00:28;21.40;99.90
680;DHT22;322;48.846;9.230;2022-10-16T09:03:04;21.60;99.90
680;DHT22;322;48.846;9.230;2022-10-16T09:05:57;21.70;99.90
680;DHT22;322;48.846;9.230;2022-10-16T09:08:34;21.80;99.90
680;DHT22;322;48.846;9.230;2022-10-16T09:11:07;21.80;99.90
680;DHT22;322;48.846;9.230;2022-10-16T09:13:42;21.80;99.90
680;DHT22;322;48.846;9.230;2022-10-16T09:16:16;21.90;99.90
680;DHT22;322;48.846;9.230;2022-10-16T09:18:54;21.70;99.90
680;DHT22;322;48.846;9.230;2022-10-16T09:21:25;21.60;99.90
680;DHT22;322;48.846;9.230;2022-10-16T09:23:57;21.60;99.90
680;DHT22;322;48.846;9.230;2022-10-16T09:26:25;21.70;99.90
680;DHT22;322;48.846;9.230;2022-10-16T09:28:52;21.80;99.90
680;DHT22;322;48.846;9.230;2022-10-16T09:31:21;21.90;99.90
680;DHT22;322;48.846;9.230;2022-10-16T09:33:53;22.00;99.90
680;DHT22;322;48.846;9.230;2022-10-16T09:36:22;22.10;99.90
680;DHT22;322;48.846;9.230;2022-10-16T09:38:50;22.30;99.90
680;DHT22;322;48.846;9.230;2022-10-16T09:41:21;22.20;99.90
680;DHT22;322;48.846;9.230;2022-10-16T09:43:52;22.10;99.90
680;DHT22;322;48.846;9.230;2022-10-16T09:46:27;21.90;99.90
680;DHT22;322;48.846;9.230;2022-10-16T09:48:57;21.70;99.90
680;DHT22;322;48.846;9.230;2022-10-16T09:51:26;21.20;99.90
680;DHT22;322;48.846;9.230;2022-10-16T09:53:58;21.10;99.90
680;DHT22;322;48.846;9.230;2022-10-16T09:56:27;21.00;99.90
680;DHT22;322;48.846;9.230;2022-10-16T09:58:56;21.10;99.90
680;DHT22;322;48.846;9.230;2022-10-16T10:01:29;21.40;99.90
680;DHT22;322;48.846;9.230;2022-10-16T10:03:59;22.00;99.90
680;DHT22;322;48.846;9.230;2022-10-16T10:06:34;22.80;99.90
680;DHT22;322;48.846;9.230;2022-10-16T10:09:14;23.60;99.90
680;DHT22;322;48.846;9.230;2022-10-16T10:11:50;24.30;99.90
680;DHT22;322;48.846;9.230;2022-10-16T10:14:22;25.10;99.90
680;DHT22;322;48.846;9.230;2022-10-16T10:16:50;25.60;99.90
680;DHT22;322;48.846;9.230;2022-10-16T10:19:21;25.70;99.90
680;DHT22;322;48.846;9.230;2022-10-16T10:21:50;26.00;99.90
680;DHT22;322;48.846;9.230;2022-10-16T10:24:19;26.40;99.90
680;DHT22;322;48.846;9.230;2022-10-16T10:26:54;26.40;99.90
680;DHT22;322;48.846;9.230;2022-10-16T10:29:41;26.40;99.90
680;DHT22;322;48.846;9.230;2022-10-16T10:32:21;26.90;99.90
680;DHT22;322;48.846;9.230;2022-10-16T10:35:13;27.70;99.90
680;DHT22;322;48.846;9.230;2022-10-16T10:38:00;28.60;99.90
680;DHT22;322;48.846;9.230;2022-10-16T10:40:38;29.30;99.90
680;DHT22;322;48.846;9.230;2022-10-16T10:43:14;29.20;98.40
680;DHT22;322;48.846;9.230;2022-10-16T10:45:46;29.20;99.30
680;DHT22;322;48.846;9.230;2022-10-16T10:48:28;29.20;99.70
680;DHT22;322;48.846;9.230;2022-10-16T10:51:03;29.50;97.80
680;DHT22;322;48.846;9.230;2022-10-16T10:53:40;29.40;98.00
680;DHT22;322;48.846;9.230;2022-10-16T10:56:19;29.20;98.20
680;DHT22;322;48.846;9.230;2022-10-16T10:59:19;29.60;98.50
680;DHT22;322;48.846;9.230;2022-10-16T11:01:52;30.40;97.70
680;DHT22;322;48.846;9.230;2022-10-16T11:04:55;31.20;95.60
680;DHT22;322;48.846;9.230;2022-10-16T11:07:31;31.40;93.20
680;DHT22;322;48.846;9.230;2022-10-16T11:10:03;32.30;92.50
680;DHT22;322;48.846;9.230;2022-10-16T11:12:34;32.50;91.50
680;DHT22;322;48.846;9.230;2022-10-16T11:15:07;32.50;90.00
680;DHT22;322;48.846;9.230;2022-10-16T11:17:39;32.60;89.80
680;DHT22;322;48.846;9.230;2022-10-16T11:20:14;31.60;89.50
680;DHT22;322;48.846;9.230;2022-10-16T11:22:47;31.00;90.30
680;DHT22;322;48.846;9.230;2022-10-16T11:25:18;29.70;92.10
680;DHT22;322;48.846;9.230;2022-10-16T11:27:50;29.80;93.30
680;DHT22;322;48.846;9.230;2022-10-16T11:30:20;30.30;93.20
680;DHT22;322;48.846;9.230;2022-10-16T11:33:05;31.20;92.60
680;DHT22;322;48.846;9.230;2022-10-16T11:35:41;31.50;92.00
680;DHT22;322;48.846;9.230;2022-10-16T11:38:16;31.50;90.50
680;DHT22;322;48.846;9.230;2022-10-16T11:40:47;31.50;90.90
680;DHT22;322;48.846;9.230;2022-10-16T11:43:19;31.70;91.40
680;DHT22;322;48.846;9.230;2022-10-16T11:45:50;31.80;87.70
680;DHT22;322;48.846;9.230;2022-10-16T11:48:25;31.80;88.80
680;DHT22;322;48.846;9.230;2022-10-16T11:50:54;32.10;88.50
680;DHT22;322;48.846;9.230;2022-10-16T11:53:35;32.50;87.70
680;DHT22;322;48.846;9.230;2022-10-16T11:56:04;32.80;87.70
680;DHT22;322;48.846;9.230;2022-10-16T11:58:35;32.90;86.90
680;DHT22;322;48.846;9.230;2022-10-16T12:01:16;33.20;86.50
680;DHT22;322;48.846;9.230;2022-10-16T12:03:47;33.80;82.20
680;DHT22;322;48.846;9.230;2022-10-16T12:06:25;32.90;81.20
680;DHT22;322;48.846;9.230;2022-10-16T12:08:58;32.40;82.80
680;DHT22;322;48.846;9.230;2022-10-16T12:11:36;32.70;84.60
680;DHT22;322;48.846;9.230;2022-10-16T12:14:06;32.80;83.60
680;DHT22;322;48.846;9.230;2022-10-16T12:16:33;32.30;82.10
680;DHT22;322;48.846;9.230;2022-10-16T12:19:11;31.30;86.00
680;DHT22;322;48.846;9.230;2022-10-16T12:21:38;30.90;88.10
680;DHT22;322;48.846;9.230;2022-10-16T12:24:21;30.40;87.80
680;DHT22;322;48.846;9.230;2022-10-16T12:26:49;29.60;90.10
680;DHT22;322;48.846;9.230;2022-10-16T12:29:23;28.90;91.40
680;DHT22;322;48.846;9.230;2022-10-16T12:31:54;28.00;91.70
680;DHT22;322;48.846;9.230;2022-10-16T12:34:25;27.30;93.30
680;DHT22;322;48.846;9.230;2022-10-16T12:36:54;26.50;94.90
680;DHT22;322;48.846;9.230;2022-10-16T12:39:24;26.20;94.80
680;DHT22;322;48.846;9.230;2022-10-16T12:42:04;26.10;95.50
680;DHT22;322;48.846;9.230;2022-10-16T12:44:34;26.30;97.50
680;DHT22;322;48.846;9.230;2022-10-16T12:47:03;26.50;97.40
680;DHT22;322;48.846;9.230;2022-10-16T12:49:36;26.10;96.10
680;DHT22;322;48.846;9.230;2022-10-16T12:52:04;25.60;96.50
680;DHT22;322;48.846;9.230;2022-10-16T12:54:36;25.40;97.70
680;DHT22;322;48.846;9.230;2022-10-16T12:57:27;25.20;97.60
680;DHT22;322;48.846;9.230;2022-10-16T13:00:03;25.20;98.30
680;DHT22;322;48.846;9.230;2022-10-16T13:05:42;25.10;99.30
680;DHT22;322;48.846;9.230;2022-10-16T13:08:31;24.90;99.30
680;DHT22;322;48.846;9.230;2022-10-16T13:11:07;24.80;99.70
680;DHT22;322;48.846;9.230;2022-10-16T13:13:49;24.70;98.30
680;DHT22;322;48.846;9.230;2022-10-16T13:16:23;24.90;98.80
680;DHT22;322;48.846;9.230;2022-10-16T13:18:59;25.20;99.90
680;DHT22;322;48.846;9.230;2022-10-16T13:21:39;25.70;98.60
680;DHT22;322;48.846;9.230;2022-10-16T13:24:17;26.10;99.90
680;DHT22;322;48.846;9.230;2022-10-16T13:26:52;26.60;98.20
680;DHT22;322;48.846;9.230;2022-10-16T13:29:22;26.90;96.90
680;DHT22;322;48.846;9.230;2022-10-16T13:31:49;27.00;96.60
680;DHT22;322;48.846;9.230;2022-10-16T13:34:19;26.50;98.20
680;DHT22;322;48.846;9.230;2022-10-16T13:36:49;26.30;99.90
680;DHT22;322;48.846;9.230;2022-10-16T13:39:22;26.30;99.60
680;DHT22;322;48.846;9.230;2022-10-16T13:42:01;26.40;99.90
680;DHT22;322;48.846;9.230;2022-10-16T13:44:35;26.50;99.90
680;DHT22;322;48.846;9.230;2022-10-16T13:47:03;26.20;99.20
680;DHT22;322;48.846;9.230;2022-10-16T13:49:29;26.00;99.90
680;DHT22;322;48.846;9.230;2022-10-16T13:51:58;26.00;99.90
680;DHT22;322;48.846;9.230;2022-10-16T13:54:26;25.80;99.90
680;DHT22;322;48.846;9.230;2022-10-16T13:56:54;25.40;99.90
680;DHT22;322;48.846;9.230;2022-10-16T13:59:25;24.90;99.90
680;DHT22;322;48.846;9.230;2022-10-16T14:01:54;24.80;99.90
680;DHT22;322;48.846;9.230;2022-10-16T14:04:23;24.60;99.90
680;DHT22;322;48.846;9.230;2022-10-16T14:06:51;24.20;99.90
680;DHT22;322;48.846;9.230;2022-10-16T14:09:23;24.20;99.90
680;DHT22;322;48.846;9.230;2022-10-16T14:11:51;24.00;99.90
680;DHT22;322;48.846;9.230;2022-10-16T14:14:19;24.00;99.90
680;DHT22;322;48.846;9.230;2022-10-16T14:16:48;23.80;99.90
680;DHT22;322;48.846;9.230;2022-10-16T14:19:19;23.70;99.90
680;DHT22;322;48.846;9.230;2022-10-16T14:21:47;23.50;99.90
680;DHT22;322;48.846;9.230;2022-10-16T14:24:24;23.50;99.90
680;DHT22;322;48.846;9.230;2022-10-16T14:26:52;23.50;99.90
680;DHT22;322;48.846;9.230;2022-10-16T14:29:20;23.40;99.90
680;DHT22;322;48.846;9.230;2022-10-16T14:31:56;23.60;99.90
680;DHT22;322;48.846;9.230;2022-10-16T14:34:29;23.60;99.90
680;DHT22;322;48.846;9.230;2022-10-16T14:36:59;23.60;99.90
680;DHT22;322;48.846;9.230;2022-10-16T14:39:28;23.60;99.90
680;DHT22;322;48.846;9.230;2022-10-16T14:41:57;23.70;99.90
680;DHT22;322;48.846;9.230;2022-10-16T14:44:28;23.60;99.90
680;DHT22;322;48.846;9.230;2022-10-16T14:46:57;23.60;99.90
680;DHT22;322;48.846;9.230;2022-10-16T14:49:25;23.60;99.90
680;DHT22;322;48.846;9.230;2022-10-16T14:51:53;23.60;99.90
680;DHT22;322;48.846;9.230;2022-10-16T14:54:20;23.70;99.90
680;DHT22;322;48.846;9.230;2022-10-16T14:56:49;23.80;99.90
680;DHT22;322;48.846;9.230;2022-10-16T14:59:19;23.90;99.90
680;DHT22;322;48.846;9.230;2022-10-16T15:01:48;24.10;99.90
680;DHT22;322;48.846;9.230;2022-10-16T15:04:16;24.10;99.90
680;DHT22;322;48.846;9.230;2022-10-16T15:06:44;24.10;99.90
680;DHT22;322;48.846;9.230;2022-10-16T15:09:11;23.90;99.90
680;DHT22;322;48.846;9.230;2022-10-16T15:11:38;23.80;99.90
680;DHT22;322;48.846;9.230;2022-10-16T15:14:05;23.70;99.90
680;DHT22;322;48.846;9.230;2022-10-16T15:16:32;23.60;99.90
680;DHT22;322;48.846;9.230;2022-10-16T15:18:59;23.60;99.90
680;DHT22;322;48.846;9.230;2022-10-16T15:21:29;23.60;99.90
680;DHT22;322;48.846;9.230;2022-10-16T15:23:56;23.60;99.90
680;DHT22;322;48.846;9.230;2022-10-16T15:26:24;23.50;99.90
680;DHT22;322;48.846;9.230;2022-10-16T15:28:50;23.50;99.90
680;DHT22;322;48.846;9.230;2022-10-16T15:31:17;23.30;99.90
680;DHT22;322;48.846;9.230;2022-10-16T15:33:45;23.20;99.90
680;DHT22;322;48.846;9.230;2022-10-16T15:36:23;23.00;99.90
680;DHT22;322;48.846;9.230;2022-10-16T15:38:52;22.70;99.90
680;DHT22;322;48.846;9.230;2022-10-16T15:41:19;22.50;99.90
680;DHT22;322;48.846;9.230;2022-10-16T15:43:48;22.40;99.90
680;DHT22;322;48.846;9.230;2022-10-16T15:46:18;22.30;99.90
680;DHT22;322;48.846;9.230;2022-10-16T15:48:45;22.20;99.90
680;DHT22;322;48.846;9.230;2022-10-16T15:51:12;22.10;99.90
680;DHT22;322;48.846;9.230;2022-10-16T15:53:39;21.90;99.90
680;DHT22;322;48.846;9.230;2022-10-16T15:56:09;21.90;99.90
680;DHT22;322;48.846;9.230;2022-10-16T15:58:37;21.90;99.90
680;DHT22;322;48.846;9.230;2022-10-16T16:01:04;21.80;99.90
680;DHT22;322;48.846;9.230;2022-10-16T16:03:31;21.80;99.90
680;DHT22;322;48.846;9.230;2022-10-16T16:06:04;21.80;99.90
680;DHT22;322;48.846;9.230;2022-10-16T16:08:31;21.80;99.90
680;DHT22;322;48.846;9.230;2022-10-16T16:10:59;21.70;99.90
680;DHT22;322;48.846;9.230;2022-10-16T16:13:27;21.70;99.90
680;DHT22;322;48.846;9.230;2022-10-16T16:15:54;21.60;99.90
680;DHT22;322;48.846;9.230;2022-10-16T16:18:21;21.40;99.90
680;DHT22;322;48.846;9.230;2022-10-16T16:20:49;21.20;99.90
680;DHT22;322;48.846;9.230;2022-10-16T16:23:15;21.00;99.90
680;DHT22;322;48.846;9.230;2022-10-16T16:25:42;20.80;99.90
680;DHT22;322;48.846;9.230;2022-10-16T16:28:09;20.60;99.90
680;DHT22;322;48.846;9.230;2022-10-16T16:30:41;20.30;99.90
680;DHT22;322;48.846;9.230;2022-10-16T16:33:07;20.10;99.90
680;DHT22;322;48.846;9.230;2022-10-16T16:35:34;19.90;99.90
680;DHT22;322;48.846;9.230;2022-10-16T16:38:01;19.90;99.90
680;DHT22;322;48.846;9.230;2022-10-16T16:40:28;19.70;99.90
680;DHT22;322;48.846;9.230;2022-10-16T16:42:54;19.60;99.90
680;DHT22;322;48.846;9.230;2022-10-16T16:45:21;19.50;99.90
680;DHT22;322;48.846;9.230;2022-10-16T16:47:52;19.30;99.90
680;DHT22;322;48.846;9.230;2022-10-16T16:50:18;19.20;99.90
680;DHT22;322;48.846;9.230;2022-10-16T16:52:45;19.10;99.90
680;DHT22;322;48.846;9.230;2022-10-16T16:55:12;19.00;99.90